Time;durP1;ratioP1;P1;durP2;ratioP2;P2;SDS_P1;SDS_P2;PMS_P1;PMS_P2;Temp;Humidity;BMP_temperature;BMP_pressure;BME280_temperature;BME280_humidity;BME280_pressure;Samples;Min_cycle;Max_cycle;Signal;HPM_P1;HPM_P2
2022/03/23 00:02:13;;;;;;;41.80;21.40;;;10.50;99.20;;;;;;5074697;28;20060;-76
2022/03/23 00:04:39;;;;;;;36.20;21.92;;;10.00;99.40;;;;;;5074821;28;20052;-76
2022/03/23 00:07:05;;;;;;;35.60;21.35;;;9.90;99.90;;;;;;5073810;28;20044;-77
2022/03/23 00:09:30;;;;;;;33.15;21.65;;;9.90;99.90;;;;;;5074310;28;20032;-76
2022/03/23 00:11:56;;;;;;;32.75;20.98;;;9.80;99.90;;;;;;5074711;28;20380;-76
2022/03/23 00:14:21;;;;;;;29.33;20.50;;;9.80;99.90;;;;;;5073274;28;20020;-76
2022/03/23 00:16:47;;;;;;;37.60;20.52;;;9.70;99.90;;;;;;5074351;28;20028;-78
2022/03/23 00:19:12;;;;;;;31.40;18.83;;;9.70;99.90;;;;;;5074105;28;20500;-76
2022/03/23 00:21:41;;;;;;;28.98;18.52;;;9.70;99.90;;;;;;5073567;28;20435;-77
2022/03/23 00:24:06;;;;;;;50.15;25.33;;;9.60;99.90;;;;;;5074115;28;20053;-75
2022/03/23 00:26:32;;;;;;;31.10;19.67;;;9.60;99.90;;;;;;5073566;28;20028;-75
2022/03/23 00:28:58;;;;;;;33.13;20.17;;;9.50;99.90;;;;;;5073969;28;20081;-77
2022/03/23 00:31:23;;;;;;;32.35;19.98;;;9.50;99.90;;;;;;5073951;28;20028;-77
2022/03/23 00:33:50;;;;;;;35.33;22.92;;;9.50;99.90;;;;;;5073376;28;20143;-77
2022/03/23 00:36:16;;;;;;;43.40;23.30;;;9.50;99.90;;;;;;5073719;28;20109;-76
2022/03/23 00:38:42;;;;;;;35.70;21.60;;;9.50;99.90;;;;;;5074111;28;20496;-77
2022/03/23 00:41:08;;;;;;;35.78;21.92;;;9.50;99.90;;;;;;5072925;28;20033;-77
2022/03/23 00:43:34;;;;;;;47.60;23.73;;;9.50;99.90;;;;;;5074038;28;20492;-76
2022/03/23 00:46:01;;;;;;;43.58;22.58;;;9.50;99.90;;;;;;5073914;28;20036;-76
2022/03/23 00:48:27;;;;;;;40.53;23.08;;;9.50;99.90;;;;;;5073264;28;20198;-77
2022/03/23 00:50:53;;;;;;;42.17;22.50;;;9.60;99.90;;;;;;5073988;28;20021;-76
2022/03/23 00:53:18;;;;;;;42.25;21.85;;;9.60;99.90;;;;;;5073454;28;20032;-74
2022/03/23 00:55:44;;;;;;;42.67;21.33;;;9.60;99.90;;;;;;5073235;28;20024;-76
2022/03/23 00:58:10;;;;;;;35.33;21.50;;;9.60;99.90;;;;;;5073572;28;20036;-76
2022/03/23 01:00:36;;;;;;;48.50;22.10;;;9.60;99.90;;;;;;5073492;28;20103;-77
2022/03/23 01:03:02;;;;;;;34.45;21.75;;;9.60;99.50;;;;;;5072903;28;20059;-77
2022/03/23 01:05:28;;;;;;;44.15;21.67;;;9.70;99.50;;;;;;5072788;28;20052;-76
2022/03/23 01:07:54;;;;;;;40.25;22.35;;;9.70;99.30;;;;;;5072945;28;20140;-76
2022/03/23 01:10:20;;;;;;;38.00;20.10;;;9.60;99.10;;;;;;5072555;28;20029;-77
2022/03/23 01:12:46;;;;;;;36.65;20.67;;;9.70;99.00;;;;;;5073847;28;20028;-75
2022/03/23 01:15:15;;;;;;;48.83;23.50;;;9.70;99.00;;;;;;5075275;28;20031;-77
2022/03/23 01:17:41;;;;;;;39.83;21.65;;;9.70;98.90;;;;;;5074643;28;20025;-76
2022/03/23 01:20:08;;;;;;;43.08;23.00;;;9.70;98.70;;;;;;5091484;28;20043;-77
2022/03/23 01:22:38;;;;;;;40.08;21.80;;;9.70;98.80;;;;;;5096486;28;20047;-76
2022/03/23 01:25:05;;;;;;;43.30;22.75;;;9.70;98.70;;;;;;5095120;28;20493;-76
2022/03/23 01:27:31;;;;;;;41.08;22.20;;;9.70;98.70;;;;;;5094446;28;20038;-76
2022/03/23 01:29:56;;;;;;;38.60;21.67;;;9.60;98.80;;;;;;5094574;28;20095;-77
2022/03/23 01:32:22;;;;;;;39.20;21.55;;;9.60;98.70;;;;;;5094845;28;20043;-77
2022/03/23 01:34:48;;;;;;;33.63;21.13;;;9.50;98.70;;;;;;5095593;28;20102;-77
2022/03/23 01:37:14;;;;;;;35.28;21.05;;;9.50;98.90;;;;;;5094258;28;20039;-75
2022/03/23 01:39:40;;;;;;;37.35;21.92;;;9.50;99.00;;;;;;5096403;28;20028;-76
2022/03/23 01:42:06;;;;;;;37.90;20.77;;;9.40;99.20;;;;;;5096935;28;20024;-77
2022/03/23 01:44:32;;;;;;;39.63;21.25;;;9.40;99.40;;;;;;5094325;28;20506;-76
2022/03/23 01:47:01;;;;;;;35.22;19.63;;;9.30;99.40;;;;;;5095929;28;20028;-77
2022/03/23 01:49:27;;;;;;;40.47;20.52;;;9.30;99.40;;;;;;5095806;28;20028;-76
2022/03/23 01:51:53;;;;;;;42.97;20.75;;;9.30;99.10;;;;;;5096341;28;20077;-76
2022/03/23 01:54:19;;;;;;;37.25;22.08;;;9.40;99.10;;;;;;5096167;28;20047;-76
2022/03/23 01:56:46;;;;;;;36.35;19.92;;;9.30;99.20;;;;;;5095505;28;20024;-76
2022/03/23 01:59:11;;;;;;;38.63;20.17;;;9.30;99.20;;;;;;5096252;28;20034;-76
2022/03/23 02:01:39;;;;;;;42.15;20.85;;;9.30;99.20;;;;;;5097356;28;20024;-77
2022/03/23 02:04:05;;;;;;;42.50;21.05;;;9.30;99.10;;;;;;5096836;28;20468;-78
2022/03/23 02:06:31;;;;;;;40.65;21.30;;;9.30;99.00;;;;;;5095265;28;20081;-76
2022/03/23 02:08:57;;;;;;;36.22;20.33;;;9.30;99.10;;;;;;5096712;28;20032;-76
2022/03/23 02:11:24;;;;;;;34.95;20.77;;;9.30;99.00;;;;;;5097428;28;20028;-76
2022/03/23 02:13:50;;;;;;;41.38;20.80;;;9.20;99.00;;;;;;5096862;28;20032;-77
2022/03/23 02:16:18;;;;;;;41.35;20.70;;;9.20;99.10;;;;;;5098254;28;20047;-77
2022/03/23 02:18:43;;;;;;;36.33;21.00;;;9.10;99.20;;;;;;5097076;28;20068;-77
2022/03/23 02:21:13;;;;;;;36.55;19.85;;;9.10;99.30;;;;;;5095115;28;20020;-75
2022/03/23 02:23:39;;;;;;;33.58;21.30;;;9.10;99.30;;;;;;5095760;28;20031;-77
2022/03/23 02:26:05;;;;;;;42.30;22.33;;;9.10;99.90;;;;;;5095756;28;20414;-77
2022/03/23 02:28:31;;;;;;;31.73;20.55;;;9.00;99.90;;;;;;5095904;28;20490;-77
2022/03/23 02:30:57;;;;;;;31.10;20.33;;;8.90;99.90;;;;;;5097238;28;20027;-76
2022/03/23 02:33:22;;;;;;;39.88;21.20;;;8.70;99.90;;;;;;5096628;28;20024;-77
2022/03/23 02:35:48;;;;;;;35.17;20.60;;;8.60;99.90;;;;;;5096534;28;20017;-76
2022/03/23 02:38:17;;;;;;;40.78;21.38;;;8.50;99.90;;;;;;5096577;28;20028;-77
2022/03/23 02:40:43;;;;;;;34.58;20.83;;;8.40;99.90;;;;;;5095521;28;20020;-76
2022/03/23 02:43:09;;;;;;;34.97;21.13;;;8.40;99.90;;;;;;5096424;28;20028;-76
2022/03/23 02:45:35;;;;;;;34.45;19.80;;;8.30;99.90;;;;;;5096176;28;20082;-76
2022/03/23 02:48:03;;;;;;;33.97;21.70;;;8.30;99.90;;;;;;5094504;28;20040;-77
2022/03/23 02:50:29;;;;;;;31.15;19.60;;;8.20;99.90;;;;;;5093387;28;20035;-76
2022/03/23 03:04:11;;;;;;;32.97;19.38;;;7.90;99.90;;;;;;5096837;28;20082;-76
2022/03/23 03:06:36;;;;;;;33.45;19.42;;;7.80;99.90;;;;;;5097078;28;20036;-75
2022/03/23 03:09:02;;;;;;;35.33;19.80;;;8.30;99.90;;;;;;5095633;28;20028;-76
2022/03/23 03:11:28;;;;;;;39.65;21.90;;;7.70;99.90;;;;;;5095396;28;20047;-75
2022/03/23 03:13:53;;;;;;;35.63;20.98;;;7.70;99.90;;;;;;5096394;28;20028;-76
2022/03/23 03:16:19;;;;;;;37.10;20.85;;;7.70;99.90;;;;;;5096435;28;20482;-76
2022/03/23 03:18:46;;;;;;;36.28;20.10;;;7.70;99.90;;;;;;5097045;28;20507;-76
2022/03/23 03:21:13;;;;;;;36.92;19.50;;;7.60;99.90;;;;;;5097627;28;20040;-78
2022/03/23 03:23:41;;;;;;;31.77;19.55;;;7.60;99.90;;;;;;5094480;28;20097;-76
2022/03/23 03:26:07;;;;;;;30.38;19.27;;;7.50;99.90;;;;;;5094188;28;20082;-76
2022/03/23 03:28:34;;;;;;;32.45;17.83;;;7.50;99.90;;;;;;5095099;28;20031;-77
2022/03/23 03:31:05;;;;;;;36.55;19.45;;;7.40;99.90;;;;;;5097955;28;20031;-77
2022/03/23 03:33:31;;;;;;;31.70;18.52;;;7.40;99.90;;;;;;5099231;28;20039;-76
2022/03/23 03:35:57;;;;;;;32.25;19.15;;;7.30;99.90;;;;;;5099097;28;20024;-76
2022/03/23 03:38:23;;;;;;;35.17;18.75;;;7.30;99.90;;;;;;5096665;28;20476;-76
2022/03/23 03:40:48;;;;;;;32.42;18.83;;;7.20;99.90;;;;;;5098448;28;20028;-77
2022/03/23 03:43:16;;;;;;;28.25;17.75;;;7.20;99.90;;;;;;5098309;28;20464;-76
2022/03/23 03:45:43;;;;;;;27.13;18.23;;;7.10;99.90;;;;;;5095207;28;20024;-76
2022/03/23 03:48:08;;;;;;;34.38;18.95;;;7.10;99.90;;;;;;5094643;28;20059;-77
2022/03/23 03:50:34;;;;;;;42.78;21.33;;;7.00;99.90;;;;;;5094345;28;20027;-76
2022/03/23 03:53:00;;;;;;;37.30;21.75;;;7.00;99.90;;;;;;5095185;28;20035;-76
2022/03/23 03:55:26;;;;;;;33.05;19.75;;;7.00;99.90;;;;;;5094522;28;20028;-76
2022/03/23 03:57:51;;;;;;;31.50;19.25;;;7.00;99.90;;;;;;5094015;28;20104;-76
2022/03/23 04:00:17;;;;;;;30.25;20.17;;;7.00;99.90;;;;;;5094503;28;20028;-76
2022/03/23 04:02:43;;;;;;;38.15;20.15;;;6.90;99.90;;;;;;5094870;28;20024;-76
2022/03/23 04:05:09;;;;;;;35.25;19.98;;;6.90;99.90;;;;;;5093734;28;20039;-76
2022/03/23 04:07:35;;;;;;;37.90;21.27;;;6.90;99.90;;;;;;5094445;28;20052;-75
2022/03/23 04:10:02;;;;;;;42.70;21.25;;;6.90;99.90;;;;;;5094393;28;20029;-76
2022/03/23 04:12:28;;;;;;;33.05;20.67;;;6.80;99.90;;;;;;5093543;28;20032;-76
2022/03/23 04:14:53;;;;;;;36.08;19.98;;;6.80;99.90;;;;;;5094444;28;20016;-76
2022/03/23 04:17:19;;;;;;;42.60;21.42;;;6.80;99.90;;;;;;5094066;28;20452;-76
2022/03/23 04:19:44;;;;;;;45.58;22.67;;;6.80;99.90;;;;;;5093547;28;20058;-77
2022/03/23 04:22:10;;;;;;;40.33;21.13;;;6.80;99.90;;;;;;5093946;28;20096;-74
2022/03/23 04:24:36;;;;;;;33.95;19.60;;;6.80;99.90;;;;;;5094112;28;20024;-75
2022/03/23 04:27:01;;;;;;;30.67;17.00;;;6.80;99.90;;;;;;5093559;28;20028;-76
2022/03/23 04:29:27;;;;;;;31.52;17.50;;;6.80;99.90;;;;;;5093595;28;20027;-77
2022/03/23 04:31:53;;;;;;;31.33;17.95;;;6.80;99.90;;;;;;5094292;28;20074;-77
2022/03/23 04:34:18;;;;;;;34.95;19.02;;;6.70;99.90;;;;;;5093006;28;20030;-77
2022/03/23 04:36:44;;;;;;;36.65;18.17;;;6.70;99.90;;;;;;5094169;28;20035;-77
2022/03/23 04:39:09;;;;;;;26.17;17.10;;;6.60;99.90;;;;;;5093733;28;20047;-76
2022/03/23 04:41:35;;;;;;;42.80;19.88;;;6.60;99.90;;;;;;5093207;28;20066;-77
2022/03/23 04:44:00;;;;;;;37.20;19.65;;;6.50;99.90;;;;;;5094645;28;20020;-76
2022/03/23 04:46:26;;;;;;;35.35;17.90;;;6.50;99.90;;;;;;5093680;28;20024;-76
2022/03/23 04:48:51;;;;;;;37.05;18.67;;;6.50;99.90;;;;;;5092848;28;20047;-76
2022/03/23 04:51:17;;;;;;;40.88;17.60;;;6.50;99.90;;;;;;5093255;28;20085;-77
2022/03/23 04:53:42;;;;;;;34.95;19.65;;;6.40;99.90;;;;;;5093589;28;20031;-76
2022/03/23 04:56:08;;;;;;;39.88;18.65;;;6.40;99.90;;;;;;5093353;28;20427;-76
2022/03/23 04:58:34;;;;;;;37.03;18.73;;;6.40;99.90;;;;;;5093691;28;20036;-77
2022/03/23 05:01:00;;;;;;;30.48;18.27;;;6.40;99.90;;;;;;5092955;28;20024;-76
2022/03/23 05:03:26;;;;;;;25.70;15.15;;;6.40;99.90;;;;;;5093317;28;20048;-75
2022/03/23 05:05:52;;;;;;;29.05;15.38;;;6.40;99.90;;;;;;5093517;28;20071;-76
2022/03/23 05:08:18;;;;;;;27.92;15.90;;;6.30;99.90;;;;;;5092366;28;20104;-77
2022/03/23 05:10:43;;;;;;;43.10;18.65;;;6.30;99.90;;;;;;5094767;28;20020;-76
2022/03/23 05:13:11;;;;;;;43.28;20.67;;;6.30;99.90;;;;;;5098147;28;20361;-76
2022/03/23 05:15:36;;;;;;;44.25;22.02;;;6.30;99.90;;;;;;5092817;28;20024;-76
2022/03/23 05:18:03;;;;;;;36.33;21.77;;;6.30;99.90;;;;;;5074936;28;20181;-76
2022/03/23 05:20:29;;;;;;;44.50;21.42;;;6.50;99.90;;;;;;5092787;28;20490;-76
2022/03/23 05:22:54;;;;;;;46.50;21.63;;;6.50;99.90;;;;;;5092227;28;20028;-76
2022/03/23 05:25:21;;;;;;;47.97;22.67;;;6.50;99.90;;;;;;5092771;28;20027;-76
2022/03/23 05:27:47;;;;;;;47.45;23.48;;;6.60;99.90;;;;;;5093110;28;20099;-76
2022/03/23 05:30:13;;;;;;;41.40;21.23;;;6.60;99.90;;;;;;5091791;28;20487;-76
2022/03/23 05:32:39;;;;;;;48.28;23.13;;;6.60;99.90;;;;;;5092826;28;20107;-77
2022/03/23 05:35:05;;;;;;;46.35;22.50;;;6.60;99.90;;;;;;5092722;28;20048;-75
2022/03/23 05:37:31;;;;;;;48.83;23.30;;;6.60;99.90;;;;;;5091494;28;20119;-77
2022/03/23 05:39:57;;;;;;;47.88;23.08;;;6.60;99.90;;;;;;5092931;28;20107;-76
2022/03/23 05:42:22;;;;;;;39.72;20.98;;;6.70;99.90;;;;;;5092493;28;20081;-77
2022/03/23 05:44:48;;;;;;;46.05;22.67;;;6.60;99.90;;;;;;5092113;28;20460;-76
2022/03/23 05:47:14;;;;;;;41.20;22.50;;;6.60;99.90;;;;;;5092359;28;20071;-76
2022/03/23 05:49:39;;;;;;;37.38;21.35;;;6.60;99.90;;;;;;5092558;28;20024;-76
2022/03/23 05:52:05;;;;;;;42.03;22.13;;;6.60;99.90;;;;;;5090903;28;20052;-77
2022/03/23 05:54:32;;;;;;;43.03;21.55;;;6.60;99.90;;;;;;5092556;28;20412;-77
2022/03/23 05:56:57;;;;;;;48.00;22.75;;;6.60;99.90;;;;;;5092557;28;20028;-75
2022/03/23 05:59:23;;;;;;;46.72;23.88;;;6.60;99.90;;;;;;5091177;28;20537;-75
2022/03/23 06:01:49;;;;;;;43.42;22.25;;;6.60;99.90;;;;;;5092313;28;20016;-77
2022/03/23 06:04:14;;;;;;;47.03;23.75;;;6.70;99.90;;;;;;5076214;28;20025;-75
2022/03/23 06:06:41;;;;;;;42.88;22.02;;;6.70;99.90;;;;;;5071034;28;20031;-76
2022/03/23 06:09:06;;;;;;;36.92;21.55;;;6.80;99.90;;;;;;5071106;28;20036;-77
2022/03/23 06:11:32;;;;;;;43.35;21.38;;;6.80;99.90;;;;;;5070374;28;20354;-76
2022/03/23 06:13:58;;;;;;;41.15;20.70;;;6.80;99.90;;;;;;5070901;28;20044;-76
2022/03/23 06:16:24;;;;;;;50.20;23.02;;;6.90;99.90;;;;;;5073801;28;20032;-76
2022/03/23 06:18:50;;;;;;;47.08;22.58;;;6.90;99.90;;;;;;5072697;28;20055;-77
2022/03/23 06:21:15;;;;;;;41.10;23.00;;;6.90;99.90;;;;;;5071355;28;20024;-77
2022/03/23 06:23:41;;;;;;;46.58;22.92;;;7.00;99.90;;;;;;5072915;28;20103;-77
2022/03/23 06:26:06;;;;;;;41.63;22.42;;;7.00;99.90;;;;;;5070198;28;20067;-76
2022/03/23 06:28:33;;;;;;;52.33;24.42;;;7.10;99.90;;;;;;5070318;28;20028;-75
2022/03/23 06:30:59;;;;;;;46.33;22.60;;;7.10;99.90;;;;;;5070474;28;20032;-76
2022/03/23 06:33:24;;;;;;;44.50;21.40;;;7.10;99.90;;;;;;5068856;28;20027;-76
2022/03/23 06:35:51;;;;;;;37.58;22.48;;;7.20;99.90;;;;;;5069806;28;20379;-77
2022/03/23 06:38:17;;;;;;;36.10;21.05;;;7.30;99.90;;;;;;5073128;28;20381;-76
2022/03/23 06:40:42;;;;;;;41.80;20.23;;;7.30;99.90;;;;;;5069928;28;20037;-76
2022/03/23 06:43:09;;;;;;;46.65;21.40;;;7.40;99.90;;;;;;5072673;28;20037;-76
2022/03/23 06:45:35;;;;;;;40.58;22.10;;;7.40;99.90;;;;;;5070476;28;20044;-76
2022/03/23 06:48:01;;;;;;;41.20;21.33;;;7.50;99.90;;;;;;5071882;28;20053;-75
2022/03/23 06:50:27;;;;;;;39.45;22.95;;;7.60;99.90;;;;;;5070364;28;20052;-76
2022/03/23 06:52:52;;;;;;;37.80;22.02;;;7.60;99.90;;;;;;5070413;28;20154;-76
2022/03/23 06:55:18;;;;;;;45.28;20.75;;;7.70;99.90;;;;;;5072541;28;20021;-76
2022/03/23 06:57:43;;;;;;;43.28;21.15;;;7.70;99.90;;;;;;5070129;28;20033;-76
2022/03/23 07:00:15;;;;;;;41.70;21.40;;;7.70;99.90;;;;;;5072606;28;20070;-75
2022/03/23 07:02:42;;;;;;;43.63;22.40;;;7.80;99.90;;;;;;5072226;28;20086;-75
2022/03/23 07:05:09;;;;;;;41.72;22.40;;;7.80;99.90;;;;;;5073414;28;20494;-76
2022/03/23 07:07:36;;;;;;;35.30;20.73;;;7.80;99.90;;;;;;5087065;28;20082;-76
2022/03/23 07:10:02;;;;;;;46.78;21.13;;;7.90;99.90;;;;;;5073788;28;20024;-76
2022/03/23 07:12:28;;;;;;;39.67;21.73;;;8.00;99.90;;;;;;5073556;28;20160;-76
2022/03/23 07:14:53;;;;;;;39.05;20.98;;;8.10;99.90;;;;;;5072989;28;20372;-76
2022/03/23 07:17:19;;;;;;;44.63;21.77;;;8.10;99.90;;;;;;5073371;28;20020;-75
2022/03/23 07:19:45;;;;;;;34.83;20.38;;;8.20;99.90;;;;;;5073926;28;20009;-75
2022/03/23 07:22:11;;;;;;;36.08;20.90;;;8.30;99.90;;;;;;5072471;28;20440;-76
2022/03/23 07:24:37;;;;;;;45.80;22.05;;;8.40;99.90;;;;;;5073770;28;20079;-75
2022/03/23 07:27:03;;;;;;;36.80;20.63;;;8.50;99.90;;;;;;5074054;28;20021;-75
2022/03/23 07:29:28;;;;;;;41.33;23.58;;;8.60;99.90;;;;;;5072760;28;20037;-76
2022/03/23 07:31:54;;;;;;;32.40;19.65;;;8.70;99.90;;;;;;5073433;28;20023;-76
2022/03/23 07:34:19;;;;;;;35.90;19.77;;;8.80;99.90;;;;;;5073513;28;20027;-76
2022/03/23 07:36:47;;;;;;;43.58;21.90;;;8.80;99.90;;;;;;5075717;28;20020;-76
2022/03/23 07:39:16;;;;;;;43.90;21.40;;;9.00;99.90;;;;;;5073241;28;20106;-75
2022/03/23 07:41:43;;;;;;;41.95;21.52;;;9.10;99.90;;;;;;5076511;28;20447;-76
2022/03/23 07:44:09;;;;;;;36.92;19.90;;;9.10;99.90;;;;;;5072309;28;20067;-74
2022/03/23 07:46:35;;;;;;;44.50;21.95;;;9.20;99.90;;;;;;5074194;28;20352;-74
2022/03/23 07:49:01;;;;;;;35.00;21.05;;;9.30;99.90;;;;;;5071204;28;20024;-74
2022/03/23 07:51:26;;;;;;;39.97;22.33;;;9.40;99.90;;;;;;5071582;28;20020;-73
2022/03/23 07:53:52;;;;;;;46.08;22.80;;;9.50;99.90;;;;;;5073808;28;20591;-73
2022/03/23 07:56:17;;;;;;;43.15;21.52;;;9.50;99.90;;;;;;5072101;28;20027;-72
2022/03/23 07:58:43;;;;;;;33.83;21.67;;;9.60;99.90;;;;;;5073319;28;20043;-73
2022/03/23 08:01:08;;;;;;;44.22;21.73;;;9.60;99.90;;;;;;5072540;28;20055;-72
2022/03/23 08:03:34;;;;;;;44.67;22.08;;;9.70;99.90;;;;;;5073191;28;20399;-73
2022/03/23 08:05:59;;;;;;;33.50;20.02;;;9.70;99.90;;;;;;5075611;28;20444;-73
2022/03/23 08:08:25;;;;;;;39.92;21.40;;;9.80;99.90;;;;;;5073706;28;20053;-73
2022/03/23 08:10:50;;;;;;;44.17;22.85;;;9.90;99.90;;;;;;5073446;28;20074;-73
2022/03/23 08:13:17;;;;;;;39.25;23.48;;;9.90;99.90;;;;;;5073542;28;20034;-73
2022/03/23 08:15:44;;;;;;;42.55;22.95;;;10.00;99.90;;;;;;5072516;28;20032;-73
2022/03/23 08:18:10;;;;;;;40.25;22.40;;;10.00;99.90;;;;;;5071845;28;20131;-73
2022/03/23 08:20:35;;;;;;;42.17;23.63;;;10.10;99.90;;;;;;5075865;28;20052;-73
2022/03/23 08:23:04;;;;;;;42.80;22.20;;;10.20;99.90;;;;;;5072652;28;20016;-74
2022/03/23 08:25:30;;;;;;;44.70;23.10;;;10.30;99.90;;;;;;5072816;28;20072;-74
2022/03/23 08:27:56;;;;;;;37.53;22.58;;;10.30;99.90;;;;;;5073843;28;20031;-78
2022/03/23 08:30:22;;;;;;;39.83;22.73;;;10.40;99.80;;;;;;5073373;28;20048;-73
2022/03/23 08:32:48;;;;;;;39.20;22.55;;;10.40;99.90;;;;;;5073004;28;20450;-75
2022/03/23 08:35:14;;;;;;;37.03;21.23;;;10.40;99.90;;;;;;5073394;28;20035;-74
2022/03/23 08:37:39;;;;;;;41.45;22.20;;;10.50;99.90;;;;;;5074078;28;20027;-75
2022/03/23 08:40:06;;;;;;;38.95;24.48;;;10.60;99.90;;;;;;5073156;28;20032;-73
2022/03/23 08:42:31;;;;;;;41.35;21.63;;;10.60;99.90;;;;;;5073397;28;20033;-73
2022/03/23 08:44:57;;;;;;;37.53;22.88;;;10.70;99.90;;;;;;5073377;28;20591;-74
2022/03/23 08:47:23;;;;;;;40.28;23.50;;;10.80;99.90;;;;;;5072584;28;20431;-73
2022/03/23 08:49:49;;;;;;;45.47;23.40;;;10.90;99.60;;;;;;5073384;28;20066;-74
2022/03/23 08:52:14;;;;;;;40.00;24.63;;;10.90;99.50;;;;;;5072768;28;20404;-74
2022/03/23 08:54:40;;;;;;;43.72;23.92;;;11.00;99.70;;;;;;5072490;28;20040;-76
2022/03/23 08:57:06;;;;;;;41.38;25.75;;;11.00;99.90;;;;;;5073209;28;20043;-74
2022/03/23 08:59:32;;;;;;;43.67;24.13;;;11.10;99.90;;;;;;5072994;28;20040;-74
2022/03/23 09:01:58;;;;;;;43.08;25.05;;;11.10;99.70;;;;;;5072460;28;20036;-75
2022/03/23 09:04:23;;;;;;;39.55;24.45;;;11.20;99.90;;;;;;5073183;28;20032;-75
2022/03/23 09:06:49;;;;;;;54.05;24.88;;;11.30;99.80;;;;;;5073168;28;20105;-74
2022/03/23 09:09:14;;;;;;;56.80;26.42;;;11.30;99.40;;;;;;5071812;28;20077;-77
2022/03/23 09:11:43;;;;;;;49.88;25.60;;;11.40;98.90;;;;;;5072638;28;20025;-75
2022/03/23 09:14:12;;;;;;;38.40;24.90;;;11.50;98.60;;;;;;5071872;28;20028;-74
2022/03/23 09:16:38;;;;;;;41.70;24.45;;;11.60;98.40;;;;;;5071951;28;20031;-74
2022/03/23 09:19:05;;;;;;;46.17;25.85;;;11.60;98.20;;;;;;5073737;28;20123;-74
2022/03/23 09:21:32;;;;;;;35.60;22.45;;;11.70;98.30;;;;;;5073056;28;20020;-74
2022/03/23 09:23:57;;;;;;;41.22;25.33;;;11.80;98.40;;;;;;5073442;28;20504;-74
2022/03/23 09:26:25;;;;;;;43.28;25.40;;;11.90;98.10;;;;;;5071467;28;20116;-74
2022/03/23 09:28:51;;;;;;;42.78;24.42;;;11.90;98.10;;;;;;5079622;28;20042;-74
2022/03/23 09:31:20;;;;;;;46.33;27.33;;;12.00;97.50;;;;;;5073058;28;20037;-73
2022/03/23 09:33:48;;;;;;;46.67;26.00;;;12.10;97.40;;;;;;5073174;28;20025;-74
2022/03/23 09:38:58;;;;;;;42.78;26.05;;;12.20;97.10;;;;;;5072567;28;20128;-75
2022/03/23 09:41:25;;;;;;;47.35;26.02;;;12.30;97.40;;;;;;5072959;28;20120;-75
2022/03/23 09:43:54;;;;;;;44.58;27.40;;;12.30;97.80;;;;;;5072739;28;20029;-73
2022/03/23 09:46:20;;;;;;;38.88;25.08;;;12.40;98.20;;;;;;5072410;28;20066;-74
2022/03/23 09:48:45;;;;;;;49.42;26.95;;;12.50;98.20;;;;;;5072626;28;20036;-75
2022/03/23 09:51:12;;;;;;;47.28;27.73;;;12.70;98.10;;;;;;5071595;28;20021;-74
2022/03/23 09:53:39;;;;;;;45.67;27.15;;;12.70;98.20;;;;;;5072275;28;20090;-74
2022/03/23 09:56:04;;;;;;;45.28;27.80;;;12.80;98.20;;;;;;5072505;28;20024;-74
2022/03/23 09:58:30;;;;;;;40.25;25.92;;;12.90;98.30;;;;;;5071189;28;20093;-74
2022/03/23 10:00:55;;;;;;;47.85;27.45;;;12.90;97.70;;;;;;5071145;28;20020;-75
2022/03/23 10:03:59;;;;;;;47.10;28.13;;;13.00;97.80;;;;;;5070474;28;20028;-74
2022/03/23 10:06:44;;;;;;;39.15;26.08;;;13.10;97.80;;;;;;5047632;28;20035;-74
2022/03/23 10:09:54;;;;;;;42.22;27.05;;;13.10;97.50;;;;;;5071614;28;20068;-74
2022/03/23 10:12:42;;;;;;;43.47;26.40;;;13.20;97.30;;;;;;5070385;28;20106;-73
2022/03/23 10:15:45;;;;;;;39.22;26.25;;;13.30;97.00;;;;;;5071261;28;20081;-74
2022/03/23 10:18:48;;;;;;;40.75;26.08;;;13.40;96.60;;;;;;5070838;28;20082;-73
2022/03/23 10:21:14;;;;;;;47.10;29.02;;;13.50;96.50;;;;;;5071690;28;20078;-73
2022/03/23 10:24:10;;;;;;;43.70;28.92;;;13.60;96.10;;;;;;5072212;28;20022;-73
2022/03/23 10:26:37;;;;;;;40.88;26.90;;;13.70;95.70;;;;;;5063707;28;20040;-72
2022/03/23 10:29:03;;;;;;;42.88;28.38;;;13.70;95.80;;;;;;5072130;28;20537;-74
2022/03/23 10:31:29;;;;;;;43.30;26.20;;;13.80;95.50;;;;;;5071133;28;20040;-73
2022/03/23 10:34:10;;;;;;;42.20;26.25;;;13.80;95.00;;;;;;5072434;28;20368;-73
2022/03/23 10:36:38;;;;;;;;;;;13.80;95.20;;;;;;5072092;28;20029;-75
2022/03/23 10:39:10;;;;;;;42.00;26.70;;;13.90;95.20;;;;;;5073011;28;19912;-75
2022/03/23 10:41:36;;;;;;;52.10;28.60;;;13.90;94.80;;;;;;5075004;28;20103;-75
2022/03/23 10:44:02;;;;;;;41.97;27.15;;;14.10;95.30;;;;;;5075222;28;20491;-75
2022/03/23 10:46:27;;;;;;;51.35;30.60;;;14.20;95.50;;;;;;5074915;28;20025;-75
2022/03/23 10:49:03;;;;;;;44.03;29.48;;;14.40;94.40;;;;;;5075856;28;20033;-74
2022/03/23 10:51:34;;;;;;;52.88;29.30;;;14.40;94.20;;;;;;5075249;28;20095;-72
2022/03/23 10:54:20;;;;;;;43.17;28.88;;;14.60;97.00;;;;;;5074393;28;20063;-73
2022/03/23 10:56:46;;;;;;;53.35;31.90;;;14.70;97.10;;;;;;5076032;28;20052;-73
2022/03/23 10:59:22;;;;;;;50.95;28.33;;;14.70;96.40;;;;;;5075509;28;20071;-74
2022/03/23 11:02:00;;;;;;;46.47;30.63;;;14.90;95.80;;;;;;5074955;28;20517;-73
2022/03/23 11:04:31;;;;;;;39.47;25.77;;;15.00;95.00;;;;;;5075074;28;20036;-72
2022/03/23 11:06:58;;;;;;;;;;;15.10;95.00;;;;;;5075276;28;20082;-71
2022/03/23 11:18:17;;;;;;;49.88;28.88;;;15.30;92.70;;;;;;5075474;28;20039;-74
2022/03/23 11:20:48;;;;;;;48.83;28.85;;;15.40;92.10;;;;;;5074607;28;20136;-74
2022/03/23 11:23:26;;;;;;;48.38;30.63;;;15.40;92.00;;;;;;5073668;28;20054;-75
2022/03/23 11:26:09;;;;;;;42.03;28.40;;;15.40;92.00;;;;;;5091625;28;20032;-75
2022/03/23 11:28:40;;;;;;;52.58;31.05;;;15.30;91.90;;;;;;5073400;28;20047;-75
2022/03/23 11:31:08;;;;;;;48.03;29.65;;;15.40;91.40;;;;;;5088672;28;20016;-75
2022/03/23 11:33:38;;;;;;;51.58;30.55;;;15.40;91.70;;;;;;5095165;28;20024;-74
2022/03/23 11:36:14;;;;;;;43.78;28.67;;;15.40;91.80;;;;;;5094887;28;20115;-75
2022/03/23 11:38:40;;;;;;;44.65;29.65;;;15.50;91.80;;;;;;5095157;28;20047;-74
2022/03/23 11:41:08;;;;;;;48.78;30.20;;;15.50;91.70;;;;;;5095174;28;20019;-74
2022/03/23 11:43:34;;;;;;;46.65;31.35;;;15.60;92.00;;;;;;5094291;28;20040;-74
2022/03/23 11:46:01;;;;;;;49.80;32.20;;;15.70;91.80;;;;;;5095092;28;20065;-73
2022/03/23 11:48:39;;;;;;;49.65;29.70;;;15.70;92.00;;;;;;5094788;28;20079;-75
2022/03/23 11:51:16;;;;;;;56.88;33.45;;;15.80;91.60;;;;;;5074904;28;20097;-75
2022/03/23 11:54:14;;;;;;;50.20;29.83;;;15.90;91.30;;;;;;5075320;28;20032;-74
2022/03/23 11:56:57;;;;;;;52.78;31.38;;;15.90;91.00;;;;;;5072998;28;20028;-75
2022/03/23 11:59:30;;;;;;;42.53;28.70;;;16.00;91.10;;;;;;5074601;28;20125;-75
2022/03/23 12:01:58;;;;;;;52.65;32.35;;;16.00;90.90;;;;;;5077830;28;20073;-76
2022/03/23 12:04:28;;;;;;;60.05;33.08;;;16.20;90.90;;;;;;5093836;28;20035;-75
2022/03/23 12:07:03;;;;;;;51.72;31.30;;;16.30;90.50;;;;;;5094526;28;20114;-75
2022/03/23 12:09:47;;;;;;;45.63;29.90;;;16.30;90.00;;;;;;5094407;28;20017;-75
2022/03/23 12:12:27;;;;;;;49.60;28.85;;;16.40;88.80;;;;;;5093637;28;20490;-76
2022/03/23 12:15:24;;;;;;;46.67;28.98;;;16.50;85.40;;;;;;5094340;28;20024;-76
2022/03/23 12:17:56;;;;;;;46.70;30.05;;;16.50;85.30;;;;;;5088493;28;20479;-75
2022/03/23 12:20:31;;;;;;;48.33;30.25;;;16.60;84.20;;;;;;5072096;28;20060;-76
2022/03/23 12:23:11;;;;;;;41.03;28.85;;;16.80;84.30;;;;;;5075748;28;20521;-74
2022/03/23 12:26:00;;;;;;;46.58;29.60;;;16.80;85.50;;;;;;5072331;28;20025;-76
2022/03/23 12:28:43;;;;;;;46.85;30.15;;;16.80;85.10;;;;;;5067713;28;20036;-77
2022/03/23 12:31:14;;;;;;;46.65;30.95;;;16.90;84.30;;;;;;5071452;28;20533;-77
2022/03/23 12:34:07;;;;;;;48.28;31.08;;;16.90;83.90;;;;;;5073517;28;20055;-76
2022/03/23 12:36:57;;;;;;;46.08;30.38;;;17.10;83.50;;;;;;5073440;28;20383;-77
2022/03/23 12:39:24;;;;;;;47.40;30.93;;;17.20;81.50;;;;;;5072323;28;20490;-76
2022/03/23 12:41:49;;;;;;;43.80;30.15;;;17.30;80.30;;;;;;5073248;28;20031;-76
2022/03/23 12:44:15;;;;;;;50.15;30.95;;;17.40;80.70;;;;;;5073150;28;20391;-76
2022/03/23 12:46:46;;;;;;;49.55;31.15;;;17.50;80.70;;;;;;5072738;28;20017;-74
2022/03/23 13:00:28;;;;;;;43.92;30.05;;;17.90;78.10;;;;;;5072325;28;20081;-78
2022/03/23 13:03:19;;;;;;;48.92;31.08;;;17.90;77.90;;;;;;5072586;28;20021;-75
2022/03/23 13:05:59;;;;;;;45.40;30.08;;;18.00;78.00;;;;;;5080272;28;20069;-77
2022/03/23 13:08:30;;;;;;;51.20;32.05;;;18.00;77.30;;;;;;5091980;28;20048;-75
2022/03/23 13:11:15;;;;;;;50.95;31.98;;;18.10;77.10;;;;;;5088926;28;20040;-76
2022/03/23 13:13:41;;;;;;;49.13;33.00;;;18.10;76.60;;;;;;5073540;28;20013;-76